sensor_id;sensor_type;location;lat;lon;timestamp;temperature;humidity
47414;DHT22;33163;0.000;0.000;2023-04-24T00:01:48;19.00;65.20
47414;DHT22;33163;0.000;0.000;2023-04-24T00:04:15;19.00;65.30
47414;DHT22;33163;0.000;0.000;2023-04-24T00:06:42;19.00;65.30
47414;DHT22;33163;0.000;0.000;2023-04-24T00:09:09;19.00;65.30
47414;DHT22;33163;0.000;0.000;2023-04-24T00:11:36;19.00;65.20
47414;DHT22;33163;0.000;0.000;2023-04-24T00:14:04;19.00;65.20
47414;DHT22;33163;0.000;0.000;2023-04-24T00:16:30;19.00;65.20
47414;DHT22;33163;0.000;0.000;2023-04-24T00:18:58;19.00;65.20
47414;DHT22;33163;0.000;0.000;2023-04-24T00:21:26;19.00;65.20
47414;DHT22;33163;0.000;0.000;2023-04-24T00:23:53;19.00;65.20
47414;DHT22;33163;0.000;0.000;2023-04-24T00:26:20;19.00;65.20
47414;DHT22;33163;0.000;0.000;2023-04-24T00:28:46;19.00;65.20
47414;DHT22;33163;0.000;0.000;2023-04-24T00:31:13;19.00;65.10
47414;DHT22;33163;0.000;0.000;2023-04-24T00:33:40;19.00;65.10
47414;DHT22;33163;0.000;0.000;2023-04-24T00:36:08;19.00;65.00
47414;DHT22;33163;0.000;0.000;2023-04-24T00:38:35;19.00;65.10
47414;DHT22;33163;0.000;0.000;2023-04-24T00:41:02;19.00;65.10
47414;DHT22;33163;0.000;0.000;2023-04-24T00:43:28;19.00;65.00
47414;DHT22;33163;0.000;0.000;2023-04-24T00:45:55;19.00;65.00
47414;DHT22;33163;0.000;0.000;2023-04-24T00:48:23;19.00;65.00
47414;DHT22;33163;0.000;0.000;2023-04-24T00:50:50;19.00;65.00
47414;DHT22;33163;0.000;0.000;2023-04-24T00:53:18;18.90;65.00
47414;DHT22;33163;0.000;0.000;2023-04-24T00:55:45;18.90;65.00
47414;DHT22;33163;0.000;0.000;2023-04-24T00:58:13;18.90;64.90
47414;DHT22;33163;0.000;0.000;2023-04-24T01:00:40;18.90;64.90
47414;DHT22;33163;0.000;0.000;2023-04-24T01:03:07;18.90;64.90
47414;DHT22;33163;0.000;0.000;2023-04-24T01:05:34;18.90;64.80
47414;DHT22;33163;0.000;0.000;2023-04-24T01:08:01;18.90;64.80
47414;DHT22;33163;0.000;0.000;2023-04-24T01:10:31;18.90;64.70
47414;DHT22;33163;0.000;0.000;2023-04-24T01:12:59;18.90;64.70
47414;DHT22;33163;0.000;0.000;2023-04-24T01:15:26;18.90;64.70
47414;DHT22;33163;0.000;0.000;2023-04-24T01:17:52;18.90;64.70
47414;DHT22;33163;0.000;0.000;2023-04-24T01:20:19;18.90;64.70
47414;DHT22;33163;0.000;0.000;2023-04-24T01:22:48;18.90;64.70
47414;DHT22;33163;0.000;0.000;2023-04-24T01:25:15;18.90;64.60
47414;DHT22;33163;0.000;0.000;2023-04-24T01:27:42;18.90;64.60
47414;DHT22;33163;0.000;0.000;2023-04-24T01:30:09;18.90;64.60
47414;DHT22;33163;0.000;0.000;2023-04-24T01:32:37;18.90;64.60
47414;DHT22;33163;0.000;0.000;2023-04-24T01:35:05;18.90;64.60
47414;DHT22;33163;0.000;0.000;2023-04-24T01:37:32;18.90;64.60
47414;DHT22;33163;0.000;0.000;2023-04-24T01:40:00;18.90;64.50
47414;DHT22;33163;0.000;0.000;2023-04-24T01:42:27;18.90;64.60
47414;DHT22;33163;0.000;0.000;2023-04-24T01:44:54;18.90;64.60
47414;DHT22;33163;0.000;0.000;2023-04-24T01:47:20;18.90;64.50
47414;DHT22;33163;0.000;0.000;2023-04-24T01:49:48;18.90;64.60
47414;DHT22;33163;0.000;0.000;2023-04-24T01:52:15;18.80;64.50
47414;DHT22;33163;0.000;0.000;2023-04-24T01:54:43;18.90;64.60
47414;DHT22;33163;0.000;0.000;2023-04-24T01:57:11;18.80;64.40
47414;DHT22;33163;0.000;0.000;2023-04-24T01:59:38;18.90;64.50
47414;DHT22;33163;0.000;0.000;2023-04-24T02:02:05;18.80;64.50
47414;DHT22;33163;0.000;0.000;2023-04-24T02:04:32;18.90;64.50
47414;DHT22;33163;0.000;0.000;2023-04-24T02:06:59;18.80;64.40
47414;DHT22;33163;0.000;0.000;2023-04-24T02:09:26;18.80;64.40
47414;DHT22;33163;0.000;0.000;2023-04-24T02:11:53;18.80;64.40
47414;DHT22;33163;0.000;0.000;2023-04-24T02:14:21;18.80;64.40
47414;DHT22;33163;0.000;0.000;2023-04-24T02:16:48;18.80;64.40
47414;DHT22;33163;0.000;0.000;2023-04-24T02:19:14;18.80;64.40
47414;DHT22;33163;0.000;0.000;2023-04-24T02:21:41;18.80;64.40
47414;DHT22;33163;0.000;0.000;2023-04-24T02:24:08;18.80;64.40
47414;DHT22;33163;0.000;0.000;2023-04-24T02:26:35;18.80;64.30
47414;DHT22;33163;0.000;0.000;2023-04-24T02:29:01;18.80;64.30
47414;DHT22;33163;0.000;0.000;2023-04-24T02:31:29;18.80;64.30
47414;DHT22;33163;0.000;0.000;2023-04-24T02:33:56;18.80;64.30
47414;DHT22;33163;0.000;0.000;2023-04-24T02:36:23;18.80;64.30
47414;DHT22;33163;0.000;0.000;2023-04-24T02:38:49;18.80;64.30
47414;DHT22;33163;0.000;0.000;2023-04-24T02:41:16;18.80;64.20
47414;DHT22;33163;0.000;0.000;2023-04-24T02:43:43;18.80;64.90
47414;DHT22;33163;0.000;0.000;2023-04-24T02:46:10;18.70;64.20
47414;DHT22;33163;0.000;0.000;2023-04-24T02:48:38;18.80;64.20
47414;DHT22;33163;0.000;0.000;2023-04-24T02:51:04;18.80;64.10
47414;DHT22;33163;0.000;0.000;2023-04-24T02:53:31;18.70;64.10
47414;DHT22;33163;0.000;0.000;2023-04-24T02:55:58;18.70;64.00
47414;DHT22;33163;0.000;0.000;2023-04-24T02:58:25;18.70;63.90
47414;DHT22;33163;0.000;0.000;2023-04-24T03:00:53;18.70;64.00
47414;DHT22;33163;0.000;0.000;2023-04-24T03:03:21;18.80;64.00
47414;DHT22;33163;0.000;0.000;2023-04-24T03:05:49;18.70;63.90
47414;DHT22;33163;0.000;0.000;2023-04-24T03:08:16;18.70;63.90
47414;DHT22;33163;0.000;0.000;2023-04-24T03:10:43;18.70;63.90
47414;DHT22;33163;0.000;0.000;2023-04-24T03:13:09;18.70;63.90
47414;DHT22;33163;0.000;0.000;2023-04-24T03:15:36;18.70;63.90
47414;DHT22;33163;0.000;0.000;2023-04-24T03:18:03;18.70;63.90
47414;DHT22;33163;0.000;0.000;2023-04-24T03:20:30;18.70;63.90
47414;DHT22;33163;0.000;0.000;2023-04-24T03:22:58;18.70;63.80
47414;DHT22;33163;0.000;0.000;2023-04-24T03:25:25;18.70;63.80
47414;DHT22;33163;0.000;0.000;2023-04-24T03:27:51;18.70;63.80
47414;DHT22;33163;0.000;0.000;2023-04-24T03:30:20;18.70;63.80
47414;DHT22;33163;0.000;0.000;2023-04-24T03:32:47;18.70;63.80
47414;DHT22;33163;0.000;0.000;2023-04-24T03:35:13;18.70;63.80
47414;DHT22;33163;0.000;0.000;2023-04-24T03:37:40;18.70;63.80
47414;DHT22;33163;0.000;0.000;2023-04-24T03:40:09;18.70;63.70
47414;DHT22;33163;0.000;0.000;2023-04-24T03:42:36;18.70;63.80
47414;DHT22;33163;0.000;0.000;2023-04-24T03:45:03;18.60;63.70
47414;DHT22;33163;0.000;0.000;2023-04-24T03:47:30;18.70;63.80
47414;DHT22;33163;0.000;0.000;2023-04-24T03:49:56;18.70;63.80
47414;DHT22;33163;0.000;0.000;2023-04-24T03:52:23;18.60;63.70
47414;DHT22;33163;0.000;0.000;2023-04-24T03:54:50;18.70;63.80
47414;DHT22;33163;0.000;0.000;2023-04-24T03:57:18;18.60;63.70
47414;DHT22;33163;0.000;0.000;2023-04-24T03:59:45;18.70;63.80
47414;DHT22;33163;0.000;0.000;2023-04-24T04:02:11;18.60;63.80
47414;DHT22;33163;0.000;0.000;2023-04-24T04:04:38;18.60;63.70
47414;DHT22;33163;0.000;0.000;2023-04-24T04:07:05;18.60;63.80
47414;DHT22;33163;0.000;0.000;2023-04-24T04:09:31;18.60;63.70
47414;DHT22;33163;0.000;0.000;2023-04-24T04:11:59;18.60;63.80
47414;DHT22;33163;0.000;0.000;2023-04-24T04:14:27;18.60;63.80
47414;DHT22;33163;0.000;0.000;2023-04-24T04:16:55;18.60;63.80
47414;DHT22;33163;0.000;0.000;2023-04-24T04:19:21;18.60;63.80
47414;DHT22;33163;0.000;0.000;2023-04-24T04:21:48;18.60;63.80
47414;DHT22;33163;0.000;0.000;2023-04-24T04:24:18;18.60;63.80
47414;DHT22;33163;0.000;0.000;2023-04-24T04:26:46;18.60;63.80
47414;DHT22;33163;0.000;0.000;2023-04-24T04:29:13;18.60;63.80
47414;DHT22;33163;0.000;0.000;2023-04-24T04:31:42;18.60;63.80
47414;DHT22;33163;0.000;0.000;2023-04-24T04:34:08;18.60;63.70
47414;DHT22;33163;0.000;0.000;2023-04-24T04:36:35;18.60;63.70
47414;DHT22;33163;0.000;0.000;2023-04-24T04:39:03;18.60;63.70
47414;DHT22;33163;0.000;0.000;2023-04-24T04:41:30;18.60;64.30
47414;DHT22;33163;0.000;0.000;2023-04-24T04:43:57;18.60;63.60
47414;DHT22;33163;0.000;0.000;2023-04-24T04:46:24;18.50;63.60
47414;DHT22;33163;0.000;0.000;2023-04-24T04:48:53;18.60;63.60
47414;DHT22;33163;0.000;0.000;2023-04-24T04:51:20;18.60;63.60
47414;DHT22;33163;0.000;0.000;2023-04-24T04:53:46;18.60;63.60
47414;DHT22;33163;0.000;0.000;2023-04-24T04:56:13;18.60;63.60
47414;DHT22;33163;0.000;0.000;2023-04-24T04:58:40;18.60;63.60
47414;DHT22;33163;0.000;0.000;2023-04-24T05:01:07;18.60;63.60
47414;DHT22;33163;0.000;0.000;2023-04-24T05:03:34;18.50;63.50
47414;DHT22;33163;0.000;0.000;2023-04-24T05:06:02;18.50;63.40
47414;DHT22;33163;0.000;0.000;2023-04-24T05:08:29;18.50;63.40
47414;DHT22;33163;0.000;0.000;2023-04-24T05:10:56;18.50;63.40
47414;DHT22;33163;0.000;0.000;2023-04-24T05:13:23;18.50;63.30
47414;DHT22;33163;0.000;0.000;2023-04-24T05:15:49;18.50;63.30
47414;DHT22;33163;0.000;0.000;2023-04-24T05:18:16;18.60;63.30
47414;DHT22;33163;0.000;0.000;2023-04-24T05:20:43;18.50;63.30
47414;DHT22;33163;0.000;0.000;2023-04-24T05:23:11;18.50;63.30
47414;DHT22;33163;0.000;0.000;2023-04-24T05:25:38;18.50;63.30
47414;DHT22;33163;0.000;0.000;2023-04-24T05:28:05;18.50;63.30
47414;DHT22;33163;0.000;0.000;2023-04-24T05:30:32;18.50;63.20
47414;DHT22;33163;0.000;0.000;2023-04-24T05:32:59;18.50;63.20
47414;DHT22;33163;0.000;0.000;2023-04-24T05:35:26;18.50;63.10
47414;DHT22;33163;0.000;0.000;2023-04-24T05:37:52;18.50;63.00
47414;DHT22;33163;0.000;0.000;2023-04-24T05:40:21;18.50;63.00
47414;DHT22;33163;0.000;0.000;2023-04-24T05:42:47;18.50;63.20
47414;DHT22;33163;0.000;0.000;2023-04-24T05:45:14;18.50;63.10
47414;DHT22;33163;0.000;0.000;2023-04-24T05:47:42;18.50;63.20
47414;DHT22;33163;0.000;0.000;2023-04-24T05:50:09;18.50;63.30
47414;DHT22;33163;0.000;0.000;2023-04-24T05:52:36;18.50;63.70
47414;DHT22;33163;0.000;0.000;2023-04-24T05:55:03;18.50;64.00
47414;DHT22;33163;0.000;0.000;2023-04-24T05:57:32;18.50;64.10
47414;DHT22;33163;0.000;0.000;2023-04-24T05:59:58;18.50;64.30
47414;DHT22;33163;0.000;0.000;2023-04-24T06:02:25;18.50;64.50
47414;DHT22;33163;0.000;0.000;2023-04-24T06:04:52;18.50;64.70
47414;DHT22;33163;0.000;0.000;2023-04-24T06:07:19;18.50;64.80
47414;DHT22;33163;0.000;0.000;2023-04-24T06:09:46;18.50;64.80
47414;DHT22;33163;0.000;0.000;2023-04-24T06:12:13;18.50;64.90
47414;DHT22;33163;0.000;0.000;2023-04-24T06:14:41;18.50;65.00
47414;DHT22;33163;0.000;0.000;2023-04-24T06:17:08;18.50;65.00
47414;DHT22;33163;0.000;0.000;2023-04-24T06:19:35;18.50;64.90
47414;DHT22;33163;0.000;0.000;2023-04-24T06:22:01;18.50;64.90
47414;DHT22;33163;0.000;0.000;2023-04-24T06:24:28;18.50;65.00
47414;DHT22;33163;0.000;0.000;2023-04-24T06:26:55;18.50;64.90
47414;DHT22;33163;0.000;0.000;2023-04-24T06:29:23;18.40;64.70
47414;DHT22;33163;0.000;0.000;2023-04-24T06:31:51;18.40;64.70
47414;DHT22;33163;0.000;0.000;2023-04-24T06:34:18;18.50;64.60
47414;DHT22;33163;0.000;0.000;2023-04-24T06:36:44;18.40;64.50
47414;DHT22;33163;0.000;0.000;2023-04-24T06:39:11;18.40;64.20
47414;DHT22;33163;0.000;0.000;2023-04-24T06:41:38;18.40;64.20
47414;DHT22;33163;0.000;0.000;2023-04-24T06:44:05;18.40;64.10
47414;DHT22;33163;0.000;0.000;2023-04-24T06:46:32;18.40;64.70
47414;DHT22;33163;0.000;0.000;2023-04-24T06:49:00;18.40;63.90
47414;DHT22;33163;0.000;0.000;2023-04-24T06:51:27;18.40;63.80
47414;DHT22;33163;0.000;0.000;2023-04-24T06:53:54;18.40;63.70
47414;DHT22;33163;0.000;0.000;2023-04-24T06:56:21;18.40;63.70
47414;DHT22;33163;0.000;0.000;2023-04-24T06:58:48;18.40;63.70
47414;DHT22;33163;0.000;0.000;2023-04-24T07:01:15;18.40;63.60
47414;DHT22;33163;0.000;0.000;2023-04-24T07:03:42;18.40;63.50
47414;DHT22;33163;0.000;0.000;2023-04-24T07:06:10;18.40;63.40
47414;DHT22;33163;0.000;0.000;2023-04-24T07:08:38;18.40;63.40
47414;DHT22;33163;0.000;0.000;2023-04-24T07:11:05;18.40;63.40
47414;DHT22;33163;0.000;0.000;2023-04-24T07:13:32;18.40;63.30
47414;DHT22;33163;0.000;0.000;2023-04-24T07:16:00;18.40;63.20
47414;DHT22;33163;0.000;0.000;2023-04-24T07:18:27;18.40;63.20
47414;DHT22;33163;0.000;0.000;2023-04-24T07:20:54;18.40;63.10
47414;DHT22;33163;0.000;0.000;2023-04-24T07:23:23;18.40;63.10
47414;DHT22;33163;0.000;0.000;2023-04-24T07:25:50;18.40;63.10
47414;DHT22;33163;0.000;0.000;2023-04-24T07:28:16;18.40;63.00
47414;DHT22;33163;0.000;0.000;2023-04-24T07:30:43;18.40;63.00
47414;DHT22;33163;0.000;0.000;2023-04-24T07:33:10;18.40;63.00
47414;DHT22;33163;0.000;0.000;2023-04-24T07:35:38;18.30;62.90
47414;DHT22;33163;0.000;0.000;2023-04-24T07:38:05;18.40;62.80
47414;DHT22;33163;0.000;0.000;2023-04-24T07:40:33;18.40;62.80
47414;DHT22;33163;0.000;0.000;2023-04-24T07:43:00;18.40;62.80
47414;DHT22;33163;0.000;0.000;2023-04-24T07:45:27;18.30;62.70
47414;DHT22;33163;0.000;0.000;2023-04-24T07:47:53;18.40;62.60
47414;DHT22;33163;0.000;0.000;2023-04-24T07:50:20;18.40;62.60
47414;DHT22;33163;0.000;0.000;2023-04-24T07:52:48;18.40;62.50
47414;DHT22;33163;0.000;0.000;2023-04-24T07:55:15;18.40;62.50
47414;DHT22;33163;0.000;0.000;2023-04-24T07:57:43;18.30;62.30
47414;DHT22;33163;0.000;0.000;2023-04-24T08:00:10;18.40;62.30
47414;DHT22;33163;0.000;0.000;2023-04-24T08:02:37;18.30;62.20
47414;DHT22;33163;0.000;0.000;2023-04-24T08:05:05;18.40;62.20
47414;DHT22;33163;0.000;0.000;2023-04-24T08:07:32;18.30;62.00
47414;DHT22;33163;0.000;0.000;2023-04-24T08:10:00;18.30;61.90
47414;DHT22;33163;0.000;0.000;2023-04-24T08:12:28;18.30;61.90
47414;DHT22;33163;0.000;0.000;2023-04-24T08:14:56;18.30;61.90
47414;DHT22;33163;0.000;0.000;2023-04-24T08:17:23;18.30;61.80
47414;DHT22;33163;0.000;0.000;2023-04-24T08:19:50;18.30;62.00
47414;DHT22;33163;0.000;0.000;2023-04-24T08:22:18;18.30;61.90
47414;DHT22;33163;0.000;0.000;2023-04-24T08:24:45;18.40;62.00
47414;DHT22;33163;0.000;0.000;2023-04-24T08:27:12;18.40;61.80
47414;DHT22;33163;0.000;0.000;2023-04-24T08:29:38;18.30;61.70
47414;DHT22;33163;0.000;0.000;2023-04-24T08:32:07;18.30;61.80
47414;DHT22;33163;0.000;0.000;2023-04-24T08:34:33;18.30;61.70
47414;DHT22;33163;0.000;0.000;2023-04-24T08:37:00;18.30;61.70
47414;DHT22;33163;0.000;0.000;2023-04-24T08:39:27;18.30;61.60
47414;DHT22;33163;0.000;0.000;2023-04-24T08:41:55;18.30;61.50
47414;DHT22;33163;0.000;0.000;2023-04-24T08:44:22;18.30;61.50
47414;DHT22;33163;0.000;0.000;2023-04-24T08:46:49;18.30;61.40
47414;DHT22;33163;0.000;0.000;2023-04-24T08:49:18;18.30;61.40
47414;DHT22;33163;0.000;0.000;2023-04-24T08:51:45;18.30;61.40
47414;DHT22;33163;0.000;0.000;2023-04-24T08:54:13;18.30;61.30
47414;DHT22;33163;0.000;0.000;2023-04-24T08:56:43;18.30;61.20
47414;DHT22;33163;0.000;0.000;2023-04-24T08:59:11;18.30;61.20
47414;DHT22;33163;0.000;0.000;2023-04-24T09:01:39;18.30;61.00
47414;DHT22;33163;0.000;0.000;2023-04-24T09:04:08;18.30;61.00
47414;DHT22;33163;0.000;0.000;2023-04-24T09:06:37;18.30;61.00
47414;DHT22;33163;0.000;0.000;2023-04-24T09:09:04;18.30;61.10
47414;DHT22;33163;0.000;0.000;2023-04-24T09:11:31;18.30;61.00
47414;DHT22;33163;0.000;0.000;2023-04-24T09:13:58;18.30;61.00
47414;DHT22;33163;0.000;0.000;2023-04-24T09:16:26;18.30;61.00
47414;DHT22;33163;0.000;0.000;2023-04-24T09:18:53;18.30;60.80
47414;DHT22;33163;0.000;0.000;2023-04-24T09:21:21;18.30;60.80
47414;DHT22;33163;0.000;0.000;2023-04-24T09:23:59;18.30;60.90
47414;DHT22;33163;0.000;0.000;2023-04-24T09:26:29;18.30;60.80
47414;DHT22;33163;0.000;0.000;2023-04-24T09:28:58;18.30;60.90
47414;DHT22;33163;0.000;0.000;2023-04-24T09:31:27;18.30;61.00
47414;DHT22;33163;0.000;0.000;2023-04-24T09:33:55;18.30;60.90
47414;DHT22;33163;0.000;0.000;2023-04-24T09:36:30;18.40;60.90
47414;DHT22;33163;0.000;0.000;2023-04-24T09:39:01;18.40;61.10
47414;DHT22;33163;0.000;0.000;2023-04-24T09:41:28;18.40;61.00
47414;DHT22;33163;0.000;0.000;2023-04-24T09:43:56;18.40;61.00
47414;DHT22;33163;0.000;0.000;2023-04-24T09:46:29;18.40;61.00
47414;DHT22;33163;0.000;0.000;2023-04-24T09:48:57;18.40;61.00
47414;DHT22;33163;0.000;0.000;2023-04-24T09:51:34;18.40;60.90
47414;DHT22;33163;0.000;0.000;2023-04-24T09:54:03;18.40;61.10
47414;DHT22;33163;0.000;0.000;2023-04-24T09:56:33;18.40;60.90
47414;DHT22;33163;0.000;0.000;2023-04-24T09:59:06;18.40;61.10
47414;DHT22;33163;0.000;0.000;2023-04-24T10:01:33;18.40;61.10
47414;DHT22;33163;0.000;0.000;2023-04-24T10:04:00;18.40;60.90
47414;DHT22;33163;0.000;0.000;2023-04-24T10:06:32;18.40;61.00
47414;DHT22;33163;0.000;0.000;2023-04-24T10:08:59;18.40;60.80
47414;DHT22;33163;0.000;0.000;2023-04-24T10:11:28;18.40;60.80
47414;DHT22;33163;0.000;0.000;2023-04-24T10:13:56;18.40;60.80
47414;DHT22;33163;0.000;0.000;2023-04-24T10:16:23;18.40;60.80
47414;DHT22;33163;0.000;0.000;2023-04-24T10:18:52;18.40;60.80
47414;DHT22;33163;0.000;0.000;2023-04-24T10:21:19;18.40;60.80
47414;DHT22;33163;0.000;0.000;2023-04-24T10:23:48;18.40;60.70
47414;DHT22;33163;0.000;0.000;2023-04-24T10:26:16;18.40;60.80
47414;DHT22;33163;0.000;0.000;2023-04-24T10:28:47;18.40;60.70
47414;DHT22;33163;0.000;0.000;2023-04-24T10:31:14;18.30;60.70
47414;DHT22;33163;0.000;0.000;2023-04-24T10:33:42;18.40;60.70
47414;DHT22;33163;0.000;0.000;2023-04-24T10:36:10;18.40;60.80
47414;DHT22;33163;0.000;0.000;2023-04-24T10:38:39;18.40;60.70
47414;DHT22;33163;0.000;0.000;2023-04-24T10:41:08;18.40;60.80
47414;DHT22;33163;0.000;0.000;2023-04-24T10:43:39;18.40;60.70
47414;DHT22;33163;0.000;0.000;2023-04-24T10:46:08;18.50;60.60
47414;DHT22;33163;0.000;0.000;2023-04-24T10:48:42;18.50;60.50
47414;DHT22;33163;0.000;0.000;2023-04-24T10:51:12;18.50;60.40
47414;DHT22;33163;0.000;0.000;2023-04-24T10:53:39;18.50;60.40
47414;DHT22;33163;0.000;0.000;2023-04-24T10:56:07;18.50;60.40
47414;DHT22;33163;0.000;0.000;2023-04-24T10:58:39;18.50;60.60
47414;DHT22;33163;0.000;0.000;2023-04-24T11:01:08;18.50;60.70
47414;DHT22;33163;0.000;0.000;2023-04-24T11:03:35;18.50;60.70
47414;DHT22;33163;0.000;0.000;2023-04-24T11:06:04;18.50;60.80
47414;DHT22;33163;0.000;0.000;2023-04-24T11:08:36;18.50;60.60
47414;DHT22;33163;0.000;0.000;2023-04-24T11:11:08;18.60;60.40
47414;DHT22;33163;0.000;0.000;2023-04-24T11:14:00;18.70;60.40
47414;DHT22;33163;0.000;0.000;2023-04-24T11:16:30;18.70;60.40
47414;DHT22;33163;0.000;0.000;2023-04-24T11:19:03;18.70;60.40
47414;DHT22;33163;0.000;0.000;2023-04-24T11:21:39;18.70;60.40
47414;DHT22;33163;0.000;0.000;2023-04-24T11:24:29;18.70;60.40
47414;DHT22;33163;0.000;0.000;2023-04-24T11:26:58;18.80;60.30
47414;DHT22;33163;0.000;0.000;2023-04-24T11:29:39;18.80;60.30
47414;DHT22;33163;0.000;0.000;2023-04-24T11:32:16;18.80;60.20
47414;DHT22;33163;0.000;0.000;2023-04-24T11:34:46;18.80;60.00
47414;DHT22;33163;0.000;0.000;2023-04-24T11:37:13;18.80;59.90
47414;DHT22;33163;0.000;0.000;2023-04-24T11:39:40;18.80;59.80
47414;DHT22;33163;0.000;0.000;2023-04-24T11:42:07;18.80;59.70
47414;DHT22;33163;0.000;0.000;2023-04-24T11:44:34;18.80;59.60
47414;DHT22;33163;0.000;0.000;2023-04-24T11:47:02;18.80;59.70
47414;DHT22;33163;0.000;0.000;2023-04-24T11:49:30;18.80;59.60
47414;DHT22;33163;0.000;0.000;2023-04-24T11:51:57;18.80;59.60
47414;DHT22;33163;0.000;0.000;2023-04-24T11:54:26;18.80;59.60
47414;DHT22;33163;0.000;0.000;2023-04-24T11:56:52;18.80;59.60
47414;DHT22;33163;0.000;0.000;2023-04-24T11:59:19;18.80;59.60
47414;DHT22;33163;0.000;0.000;2023-04-24T12:01:46;18.80;59.50
47414;DHT22;33163;0.000;0.000;2023-04-24T12:04:15;18.80;59.50
47414;DHT22;33163;0.000;0.000;2023-04-24T12:07:01;18.80;59.40
47414;DHT22;33163;0.000;0.000;2023-04-24T12:09:27;18.80;59.40
47414;DHT22;33163;0.000;0.000;2023-04-24T12:11:55;18.70;59.40
47414;DHT22;33163;0.000;0.000;2023-04-24T12:14:22;18.70;59.40
47414;DHT22;33163;0.000;0.000;2023-04-24T12:16:49;18.70;59.40
47414;DHT22;33163;0.000;0.000;2023-04-24T12:19:20;18.70;59.60
47414;DHT22;33163;0.000;0.000;2023-04-24T12:22:00;18.70;59.70
47414;DHT22;33163;0.000;0.000;2023-04-24T12:24:27;18.80;59.60
47414;DHT22;33163;0.000;0.000;2023-04-24T12:26:54;18.70;59.60
47414;DHT22;33163;0.000;0.000;2023-04-24T12:29:21;18.80;59.70
47414;DHT22;33163;0.000;0.000;2023-04-24T12:31:49;18.80;59.60
47414;DHT22;33163;0.000;0.000;2023-04-24T12:34:20;18.80;59.60
47414;DHT22;33163;0.000;0.000;2023-04-24T12:36:47;18.80;59.60
47414;DHT22;33163;0.000;0.000;2023-04-24T12:39:18;18.80;59.60
47414;DHT22;33163;0.000;0.000;2023-04-24T12:41:51;18.80;59.50
47414;DHT22;33163;0.000;0.000;2023-04-24T12:44:29;18.80;59.50
47414;DHT22;33163;0.000;0.000;2023-04-24T12:46:56;18.80;59.50
47414;DHT22;33163;0.000;0.000;2023-04-24T12:49:22;18.80;59.50
47414;DHT22;33163;0.000;0.000;2023-04-24T12:51:49;18.80;59.50
47414;DHT22;33163;0.000;0.000;2023-04-24T12:54:17;18.80;59.50
47414;DHT22;33163;0.000;0.000;2023-04-24T12:56:44;18.80;59.50
47414;DHT22;33163;0.000;0.000;2023-04-24T12:59:11;18.80;59.50
47414;DHT22;33163;0.000;0.000;2023-04-24T13:01:37;18.80;59.50
47414;DHT22;33163;0.000;0.000;2023-04-24T13:04:05;18.80;59.40
47414;DHT22;33163;0.000;0.000;2023-04-24T13:06:32;18.80;59.40
47414;DHT22;33163;0.000;0.000;2023-04-24T13:08:59;18.80;59.50
47414;DHT22;33163;0.000;0.000;2023-04-24T13:11:27;18.70;59.40
47414;DHT22;33163;0.000;0.000;2023-04-24T13:13:54;18.70;59.40
47414;DHT22;33163;0.000;0.000;2023-04-24T13:16:21;18.70;59.30
47414;DHT22;33163;0.000;0.000;2023-04-24T13:18:48;18.80;59.30
47414;DHT22;33163;0.000;0.000;2023-04-24T13:21:15;18.80;59.30
47414;DHT22;33163;0.000;0.000;2023-04-24T13:23:42;18.80;59.20
47414;DHT22;33163;0.000;0.000;2023-04-24T13:26:09;18.80;59.10
47414;DHT22;33163;0.000;0.000;2023-04-24T13:28:37;18.80;59.00
47414;DHT22;33163;0.000;0.000;2023-04-24T13:31:04;18.80;59.10
47414;DHT22;33163;0.000;0.000;2023-04-24T13:33:31;18.80;59.20
47414;DHT22;33163;0.000;0.000;2023-04-24T13:35:58;18.80;59.10
47414;DHT22;33163;0.000;0.000;2023-04-24T13:38:25;18.80;58.80
47414;DHT22;33163;0.000;0.000;2023-04-24T13:40:52;18.80;58.70
47414;DHT22;33163;0.000;0.000;2023-04-24T13:43:18;18.80;58.80
47414;DHT22;33163;0.000;0.000;2023-04-24T13:45:46;18.80;58.60
47414;DHT22;33163;0.000;0.000;2023-04-24T13:48:13;18.90;58.60
47414;DHT22;33163;0.000;0.000;2023-04-24T13:50:41;18.80;58.40
47414;DHT22;33163;0.000;0.000;2023-04-24T13:53:08;18.90;58.20
47414;DHT22;33163;0.000;0.000;2023-04-24T13:55:35;18.90;58.30
47414;DHT22;33163;0.000;0.000;2023-04-24T13:58:01;18.90;58.30
47414;DHT22;33163;0.000;0.000;2023-04-24T14:00:28;18.80;58.20
47414;DHT22;33163;0.000;0.000;2023-04-24T14:02:57;18.80;58.10
47414;DHT22;33163;0.000;0.000;2023-04-24T14:05:24;18.80;58.00
47414;DHT22;33163;0.000;0.000;2023-04-24T14:07:51;18.90;58.10
47414;DHT22;33163;0.000;0.000;2023-04-24T14:10:18;18.80;58.10
47414;DHT22;33163;0.000;0.000;2023-04-24T14:12:45;18.80;58.10
47414;DHT22;33163;0.000;0.000;2023-04-24T14:15:11;18.80;58.20
47414;DHT22;33163;0.000;0.000;2023-04-24T14:17:38;18.80;58.20
47414;DHT22;33163;0.000;0.000;2023-04-24T14:20:08;18.80;58.30
47414;DHT22;33163;0.000;0.000;2023-04-24T14:22:35;18.80;58.40
47414;DHT22;33163;0.000;0.000;2023-04-24T14:25:01;18.70;58.40
47414;DHT22;33163;0.000;0.000;2023-04-24T14:27:28;18.70;58.30
47414;DHT22;33163;0.000;0.000;2023-04-24T14:29:55;18.80;58.30
47414;DHT22;33163;0.000;0.000;2023-04-24T14:32:22;18.80;58.30
47414;DHT22;33163;0.000;0.000;2023-04-24T14:34:49;18.70;58.20
47414;DHT22;33163;0.000;0.000;2023-04-24T14:37:17;18.70;58.20
47414;DHT22;33163;0.000;0.000;2023-04-24T14:39:45;18.70;58.20
47414;DHT22;33163;0.000;0.000;2023-04-24T14:42:11;18.70;58.10
47414;DHT22;33163;0.000;0.000;2023-04-24T14:44:39;18.70;58.10
47414;DHT22;33163;0.000;0.000;2023-04-24T14:47:05;18.80;58.00
47414;DHT22;33163;0.000;0.000;2023-04-24T14:49:32;18.80;58.00
47414;DHT22;33163;0.000;0.000;2023-04-24T14:51:59;18.80;57.90
47414;DHT22;33163;0.000;0.000;2023-04-24T14:54:27;18.80;58.00
47414;DHT22;33163;0.000;0.000;2023-04-24T14:56:54;18.80;57.70
47414;DHT22;33163;0.000;0.000;2023-04-24T14:59:22;18.90;57.60
47414;DHT22;33163;0.000;0.000;2023-04-24T15:01:49;18.90;57.40
47414;DHT22;33163;0.000;0.000;2023-04-24T15:04:17;19.00;57.20
47414;DHT22;33163;0.000;0.000;2023-04-24T15:06:43;19.00;57.00
47414;DHT22;33163;0.000;0.000;2023-04-24T15:09:10;19.10;56.80
47414;DHT22;33163;0.000;0.000;2023-04-24T15:11:38;19.10;56.50
47414;DHT22;33163;0.000;0.000;2023-04-24T15:14:05;19.20;56.50
47414;DHT22;33163;0.000;0.000;2023-04-24T15:16:32;19.20;56.40
47414;DHT22;33163;0.000;0.000;2023-04-24T15:18:58;19.30;56.20
47414;DHT22;33163;0.000;0.000;2023-04-24T15:21:25;19.30;56.00
47414;DHT22;33163;0.000;0.000;2023-04-24T15:23:52;19.40;55.90
47414;DHT22;33163;0.000;0.000;2023-04-24T15:26:19;19.40;55.60
47414;DHT22;33163;0.000;0.000;2023-04-24T15:28:47;19.40;55.60
47414;DHT22;33163;0.000;0.000;2023-04-24T15:31:14;19.50;55.70
47414;DHT22;33163;0.000;0.000;2023-04-24T15:33:40;19.50;55.60
47414;DHT22;33163;0.000;0.000;2023-04-24T15:36:08;19.60;55.50
47414;DHT22;33163;0.000;0.000;2023-04-24T15:38:34;19.60;55.30
47414;DHT22;33163;0.000;0.000;2023-04-24T15:41:01;19.60;55.20
47414;DHT22;33163;0.000;0.000;2023-04-24T15:43:28;19.70;55.30
47414;DHT22;33163;0.000;0.000;2023-04-24T15:45:57;19.70;55.20
47414;DHT22;33163;0.000;0.000;2023-04-24T15:48:24;19.70;55.00